createdAt,value
2018-05-27T00:01:20.557Z,19.20
2018-05-27T00:03:53.190Z,19.20
2018-05-27T00:06:25.555Z,19.10
2018-05-27T00:08:57.977Z,19.10
2018-05-27T00:11:31.101Z,19.00
2018-05-27T00:14:04.980Z,19.00
2018-05-27T00:16:37.470Z,18.90
2018-05-27T00:19:10.619Z,18.80
2018-05-27T00:21:43.170Z,18.80
2018-05-27T00:24:16.390Z,18.80
2018-05-27T00:26:51.951Z,18.80
2018-05-27T00:29:24.460Z,18.70
2018-05-27T00:31:56.931Z,18.70
2018-05-27T00:34:29.768Z,18.60
2018-05-27T00:37:03.040Z,18.50
2018-05-27T00:39:35.527Z,18.30
2018-05-27T00:42:08.721Z,18.10
2018-05-27T00:44:41.415Z,18.00
2018-05-27T00:47:14.226Z,18.00
2018-05-27T00:49:46.908Z,17.90
2018-05-27T00:52:19.585Z,17.70
2018-05-27T00:54:52.120Z,17.50
2018-05-27T00:57:25.314Z,17.30
2018-05-27T00:59:57.896Z,17.30
2018-05-27T01:02:31.194Z,17.40
2018-05-27T01:05:03.766Z,17.30
2018-05-27T01:07:36.469Z,17.30
2018-05-27T01:10:09.085Z,17.20
2018-05-27T01:12:41.639Z,17.10
2018-05-27T01:15:14.251Z,17.00
2018-05-27T01:17:47.409Z,17.00
2018-05-27T01:20:20.621Z,17.00
2018-05-27T01:22:54.116Z,17.00
2018-05-27T01:25:27.296Z,16.90
2018-05-27T01:27:59.930Z,16.90
2018-05-27T01:30:32.312Z,16.80
2018-05-27T01:33:04.847Z,16.70
2018-05-27T01:35:38.126Z,16.70
2018-05-27T01:38:10.985Z,16.70
2018-05-27T01:40:43.490Z,16.70
2018-05-27T01:43:19.700Z,16.70
2018-05-27T01:45:52.179Z,16.70
2018-05-27T01:48:24.576Z,16.70
2018-05-27T01:50:57.900Z,16.60
2018-05-27T01:53:30.362Z,16.60
2018-05-27T01:56:02.910Z,16.60
2018-05-27T01:58:35.341Z,16.50
2018-05-27T02:01:07.742Z,16.50
2018-05-27T02:03:41.005Z,16.50
2018-05-27T02:06:13.555Z,16.50
2018-05-27T02:08:46.731Z,16.50
2018-05-27T02:11:19.313Z,16.50
2018-05-27T02:13:51.968Z,16.50
2018-05-27T02:16:24.649Z,16.50
2018-05-27T02:18:57.040Z,16.40
2018-05-27T02:21:29.457Z,16.40
2018-05-27T02:24:02.592Z,16.30
2018-05-27T02:26:35.808Z,16.30
2018-05-27T02:29:09.034Z,16.20
2018-05-27T02:31:41.656Z,16.10
2018-05-27T02:34:14.860Z,16.20
2018-05-27T02:36:47.244Z,16.10
2018-05-27T02:39:19.701Z,16.20
2018-05-27T02:41:52.266Z,16.20
2018-05-27T02:44:24.848Z,16.20
2018-05-27T02:46:57.420Z,16.10
2018-05-27T02:49:30.000Z,16.10
2018-05-27T02:52:02.661Z,16.00
2018-05-27T02:54:35.044Z,16.00
2018-05-27T02:57:07.462Z,16.00
2018-05-27T02:59:39.852Z,16.00
2018-05-27T03:02:12.355Z,16.00
2018-05-27T03:04:45.475Z,16.00
2018-05-27T03:07:17.865Z,16.00
2018-05-27T03:09:50.282Z,16.00
2018-05-27T03:12:29.530Z,15.90
2018-05-27T03:15:02.040Z,15.70
2018-05-27T03:17:34.536Z,15.70
2018-05-27T03:20:06.945Z,15.60
2018-05-27T03:22:40.386Z,15.60
2018-05-27T03:25:12.897Z,15.60
2018-05-27T03:27:46.066Z,15.60
2018-05-27T03:30:18.491Z,15.60
2018-05-27T03:32:51.667Z,15.50
2018-05-27T03:35:24.298Z,15.60
2018-05-27T03:37:56.717Z,15.50
2018-05-27T03:40:29.320Z,15.50
2018-05-27T03:43:01.706Z,15.40
2018-05-27T03:45:34.070Z,15.40
2018-05-27T03:48:06.555Z,15.40
2018-05-27T03:50:39.043Z,15.40
2018-05-27T03:53:11.711Z,15.40
2018-05-27T03:55:44.385Z,15.50
2018-05-27T03:58:16.749Z,15.50
2018-05-27T04:00:49.057Z,15.60
2018-05-27T04:03:21.485Z,15.60
2018-05-27T04:06:06.251Z,15.60
2018-05-27T04:08:38.787Z,15.60
2018-05-27T04:11:12.772Z,15.60
2018-05-27T04:13:45.203Z,15.50
2018-05-27T04:16:18.266Z,15.50
2018-05-27T04:18:50.732Z,15.50
2018-05-27T04:21:23.132Z,15.50
2018-05-27T04:23:55.607Z,15.60
2018-05-27T04:26:27.987Z,15.60
2018-05-27T04:29:00.480Z,15.60
2018-05-27T04:31:32.967Z,15.70
2018-05-27T04:34:05.406Z,15.70
2018-05-27T04:36:38.580Z,15.90
2018-05-27T04:39:11.091Z,15.90
2018-05-27T04:41:43.794Z,16.00
2018-05-27T04:44:21.245Z,16.10
2018-05-27T04:46:53.636Z,16.10
2018-05-27T04:49:26.812Z,16.30
2018-05-27T04:51:59.348Z,16.30
2018-05-27T04:54:36.370Z,16.50
2018-05-27T04:57:09.068Z,16.50
2018-05-27T04:59:41.827Z,16.60
2018-05-27T05:02:14.627Z,16.60
2018-05-27T05:04:50.667Z,16.70
2018-05-27T05:07:23.497Z,16.70
2018-05-27T05:09:56.057Z,16.80
2018-05-27T05:12:28.707Z,16.80
2018-05-27T05:15:01.201Z,16.90
2018-05-27T05:17:34.095Z,17.00
2018-05-27T05:20:07.307Z,17.20
2018-05-27T05:22:39.937Z,17.20
2018-05-27T05:25:12.597Z,17.30
2018-05-27T05:27:45.106Z,17.40
2018-05-27T05:30:17.561Z,17.60
2018-05-27T05:32:49.954Z,17.70
2018-05-27T05:35:22.929Z,17.80
2018-05-27T05:37:55.702Z,17.90
2018-05-27T05:40:28.281Z,18.10
2018-05-27T05:43:00.945Z,18.20
2018-05-27T05:45:33.397Z,18.30
2018-05-27T05:48:05.822Z,18.50
2018-05-27T05:50:38.511Z,18.70
2018-05-27T05:53:11.639Z,18.90
2018-05-27T05:55:44.072Z,19.00
2018-05-27T05:58:16.537Z,19.20
2018-05-27T06:00:49.641Z,19.50
2018-05-27T06:03:22.246Z,19.50
2018-05-27T06:05:54.923Z,19.70
2018-05-27T06:08:27.453Z,19.90
2018-05-27T06:11:00.118Z,20.00
2018-05-27T06:13:32.825Z,20.20
2018-05-27T06:16:05.217Z,20.30
2018-05-27T06:18:37.684Z,20.40
2018-05-27T06:21:10.412Z,20.50
2018-05-27T06:23:42.768Z,20.60
2018-05-27T06:26:22.121Z,20.60
2018-05-27T06:28:54.622Z,20.70
2018-05-27T06:31:27.948Z,20.80
2018-05-27T06:34:01.221Z,20.90
2018-05-27T06:36:33.741Z,20.90
2018-05-27T06:39:06.481Z,21.00
2018-05-27T06:41:39.102Z,21.00
2018-05-27T06:44:11.421Z,21.10
2018-05-27T06:46:43.804Z,21.20
2018-05-27T06:49:16.426Z,21.40
2018-05-27T06:51:48.862Z,21.50
2018-05-27T06:54:21.629Z,21.70
2018-05-27T06:56:54.937Z,22.00
2018-05-27T06:59:27.437Z,22.00
2018-05-27T07:02:00.686Z,22.30
2018-05-27T07:04:33.838Z,22.40
2018-05-27T07:07:06.272Z,22.40
2018-05-27T07:09:38.753Z,22.50
2018-05-27T07:12:11.617Z,22.60
2018-05-27T07:14:44.178Z,22.70
2018-05-27T07:17:16.893Z,22.80
2018-05-27T07:19:49.467Z,22.80
2018-05-27T07:22:22.011Z,22.90
2018-05-27T07:24:58.731Z,23.00
2018-05-27T07:27:31.632Z,23.20
2018-05-27T07:30:04.166Z,23.20
2018-05-27T07:32:36.557Z,23.30
2018-05-27T07:35:12.527Z,23.30
2018-05-27T07:37:45.121Z,23.40
2018-05-27T07:40:17.553Z,23.50
2018-05-27T07:42:50.196Z,23.50
2018-05-27T07:45:23.353Z,23.60
2018-05-27T07:47:55.778Z,23.60
2018-05-27T07:50:29.095Z,23.80
2018-05-27T07:53:01.603Z,23.80
2018-05-27T07:55:34.778Z,23.90
2018-05-27T07:58:07.245Z,24.00
2018-05-27T08:00:40.123Z,24.10
2018-05-27T08:03:12.552Z,24.20
2018-05-27T08:05:45.755Z,24.30
2018-05-27T08:08:18.331Z,24.30
2018-05-27T08:10:50.813Z,24.40
2018-05-27T08:13:23.301Z,24.50
2018-05-27T08:15:56.007Z,24.60
2018-05-27T08:18:28.443Z,24.70
2018-05-27T08:21:01.737Z,24.80
2018-05-27T08:23:34.391Z,24.70
2018-05-27T08:26:06.730Z,24.80
2018-05-27T08:28:39.176Z,24.90
2018-05-27T08:31:11.764Z,25.00
2018-05-27T08:33:44.356Z,25.10
2018-05-27T08:36:16.937Z,25.10
2018-05-27T08:38:49.549Z,25.10
2018-05-27T08:41:22.347Z,25.20
2018-05-27T08:43:54.901Z,25.20
2018-05-27T08:46:27.517Z,25.30
2018-05-27T08:49:00.051Z,25.50
2018-05-27T08:51:32.987Z,25.50
2018-05-27T08:54:06.212Z,25.80
2018-05-27T08:56:40.211Z,25.90
2018-05-27T08:59:12.942Z,25.90
2018-05-27T09:01:46.363Z,26.00
2018-05-27T09:04:19.532Z,26.00
2018-05-27T09:06:52.719Z,26.00
2018-05-27T09:09:25.473Z,26.00
2018-05-27T09:11:58.801Z,26.10
2018-05-27T09:14:31.495Z,26.10
2018-05-27T09:17:05.076Z,26.40
2018-05-27T09:19:37.658Z,26.40
2018-05-27T09:22:10.294Z,26.60
2018-05-27T09:24:42.922Z,26.70
2018-05-27T09:27:15.346Z,26.80
2018-05-27T09:29:47.828Z,26.90
2018-05-27T09:32:20.406Z,26.90
2018-05-27T09:34:52.734Z,27.00
2018-05-27T09:37:25.281Z,27.00
2018-05-27T09:40:01.068Z,27.00
2018-05-27T09:42:34.279Z,27.20
2018-05-27T09:45:06.775Z,27.10
2018-05-27T09:47:39.968Z,27.30
2018-05-27T09:50:12.554Z,27.20
2018-05-27T09:52:45.017Z,27.30
2018-05-27T09:55:17.483Z,27.40
2018-05-27T09:57:50.123Z,27.50
2018-05-27T10:00:22.512Z,27.60
2018-05-27T10:02:55.008Z,27.80
2018-05-27T10:05:27.697Z,28.00
2018-05-27T10:08:00.109Z,28.10
2018-05-27T10:10:32.831Z,28.10
2018-05-27T10:13:06.798Z,27.80
2018-05-27T10:15:40.983Z,27.70
2018-05-27T10:18:13.532Z,27.60
2018-05-27T10:20:46.196Z,27.60
2018-05-27T10:23:19.464Z,27.60
2018-05-27T10:25:51.938Z,27.40
2018-05-27T10:28:24.300Z,27.50
2018-05-27T10:30:57.671Z,27.70
2018-05-27T10:33:30.324Z,27.70
2018-05-27T10:36:02.811Z,27.80
2018-05-27T10:38:35.347Z,27.80
2018-05-27T10:41:08.252Z,27.90
2018-05-27T10:43:41.153Z,27.90
2018-05-27T10:46:13.670Z,27.90
2018-05-27T10:48:46.257Z,27.80
2018-05-27T10:51:18.648Z,27.90
2018-05-27T10:53:51.191Z,28.00
2018-05-27T10:56:24.023Z,28.10
2018-05-27T10:58:56.566Z,28.10
2018-05-27T11:01:28.962Z,27.90
2018-05-27T11:04:01.638Z,27.90
2018-05-27T11:06:34.330Z,28.00
2018-05-27T11:09:06.877Z,28.00
2018-05-27T11:11:39.357Z,28.20
2018-05-27T11:14:11.743Z,28.30
2018-05-27T11:16:44.852Z,28.50
2018-05-27T11:19:17.451Z,28.50
2018-05-27T11:21:49.956Z,28.70
2018-05-27T11:24:22.644Z,28.90
2018-05-27T11:26:55.831Z,28.90
2018-05-27T11:29:28.339Z,28.90
2018-05-27T11:32:00.897Z,28.80
2018-05-27T11:34:33.627Z,28.70
2018-05-27T11:37:06.271Z,28.70
2018-05-27T11:39:39.603Z,28.80
2018-05-27T11:42:13.672Z,28.70
2018-05-27T11:44:46.591Z,28.70
2018-05-27T11:47:26.692Z,28.40
2018-05-27T11:49:59.868Z,28.30
2018-05-27T11:52:32.299Z,28.30
2018-05-27T11:55:04.971Z,28.30
2018-05-27T11:57:38.098Z,28.40
2018-05-27T12:00:10.641Z,28.60
2018-05-27T12:02:43.278Z,28.80
2018-05-27T12:05:15.943Z,29.00
2018-05-27T12:07:49.493Z,29.10
2018-05-27T12:10:21.957Z,29.10
2018-05-27T12:12:54.389Z,29.10
2018-05-27T12:15:27.291Z,29.30
2018-05-27T12:17:59.806Z,29.50
2018-05-27T12:20:32.259Z,29.60
2018-05-27T12:23:04.963Z,29.60
2018-05-27T12:25:37.849Z,29.70
2018-05-27T12:28:10.378Z,29.80
2018-05-27T12:30:43.097Z,29.90
2018-05-27T12:33:16.008Z,30.10
2018-05-27T12:35:48.833Z,30.40
2018-05-27T12:38:21.608Z,30.50
2018-05-27T12:40:54.337Z,30.60
2018-05-27T12:43:26.772Z,30.60
2018-05-27T12:45:59.968Z,30.60
2018-05-27T12:48:32.746Z,30.50
2018-05-27T12:51:05.420Z,30.60
2018-05-27T12:53:37.969Z,31.00
2018-05-27T12:56:10.406Z,31.40
2018-05-27T12:58:43.854Z,31.20
2018-05-27T13:01:16.527Z,31.20
2018-05-27T13:03:49.064Z,31.80
2018-05-27T13:06:22.154Z,32.90
2018-05-27T13:08:54.746Z,32.90
2018-05-27T13:11:27.433Z,33.60
2018-05-27T13:13:59.993Z,33.60
2018-05-27T13:16:36.689Z,32.80
2018-05-27T13:19:09.259Z,32.80
2018-05-27T13:21:41.778Z,32.10
2018-05-27T13:24:14.243Z,31.80
2018-05-27T13:26:47.488Z,31.80
2018-05-27T13:29:20.065Z,31.70
2018-05-27T13:31:56.378Z,31.70
2018-05-27T13:34:29.580Z,31.30
2018-05-27T13:37:02.143Z,31.30
2018-05-27T13:39:34.788Z,31.20
2018-05-27T13:42:07.342Z,31.10
2018-05-27T13:44:39.956Z,31.20
2018-05-27T13:47:13.199Z,31.00
2018-05-27T13:49:45.934Z,30.90
2018-05-27T13:52:18.550Z,30.70
2018-05-27T13:54:51.204Z,30.50
2018-05-27T13:57:23.557Z,29.60
2018-05-27T13:59:56.305Z,29.20
2018-05-27T14:02:28.793Z,29.00
2018-05-27T14:05:01.699Z,28.90
2018-05-27T14:07:34.589Z,28.90
2018-05-27T14:10:08.150Z,28.90
2018-05-27T14:12:40.948Z,28.80
2018-05-27T14:15:14.152Z,28.70
2018-05-27T14:17:46.675Z,28.60
2018-05-27T14:20:19.683Z,28.50
2018-05-27T14:22:53.704Z,28.30
2018-05-27T14:25:26.504Z,28.20
2018-05-27T14:27:58.965Z,28.10
2018-05-27T14:30:31.437Z,28.00
2018-05-27T14:33:04.961Z,27.70
2018-05-27T14:35:37.564Z,27.70
2018-05-27T14:38:10.188Z,27.60
2018-05-27T14:40:44.454Z,27.40
2018-05-27T14:43:16.904Z,27.40
2018-05-27T14:45:53.225Z,27.30
2018-05-27T14:48:26.294Z,27.10
2018-05-27T14:50:59.199Z,27.00
2018-05-27T14:53:31.975Z,26.80
2018-05-27T14:56:05.322Z,26.00
2018-05-27T14:58:38.130Z,25.90
2018-05-27T15:01:10.749Z,25.60
2018-05-27T15:03:43.260Z,25.20
2018-05-27T15:06:15.964Z,24.80
2018-05-27T15:08:48.483Z,24.30
2018-05-27T15:11:21.185Z,23.70
2018-05-27T15:13:53.819Z,23.10
2018-05-27T15:16:27.115Z,22.20
2018-05-27T15:19:00.484Z,22.20
2018-05-27T15:21:33.479Z,22.00
2018-05-27T15:24:06.643Z,21.70
2018-05-27T15:26:39.791Z,21.50
2018-05-27T15:29:12.273Z,21.30
2018-05-27T15:31:45.097Z,21.00
2018-05-27T15:34:17.608Z,20.70
2018-05-27T15:36:50.179Z,20.40
2018-05-27T15:39:23.513Z,20.00
2018-05-27T15:41:56.218Z,20.00
2018-05-27T15:44:28.775Z,19.90
2018-05-27T15:47:01.357Z,19.80
2018-05-27T15:49:34.021Z,19.70
2018-05-27T15:52:06.569Z,19.60
2018-05-27T15:54:39.509Z,19.50
2018-05-27T15:57:12.916Z,19.20
2018-05-27T15:59:45.632Z,19.20
2018-05-27T16:02:18.061Z,19.10
2018-05-27T16:04:50.849Z,19.00
2018-05-27T16:07:23.987Z,19.00
2018-05-27T16:09:56.761Z,19.00
2018-05-27T16:12:30.057Z,19.00
2018-05-27T16:15:02.864Z,19.00
2018-05-27T16:17:35.447Z,19.00
2018-05-27T16:20:07.929Z,19.00
2018-05-27T16:22:40.549Z,19.10
2018-05-27T16:25:13.199Z,19.20
2018-05-27T16:27:46.466Z,19.20
2018-05-27T16:30:22.587Z,19.20
2018-05-27T16:32:55.339Z,19.20
2018-05-27T16:35:28.050Z,19.30
2018-05-27T16:38:00.529Z,19.40
2018-05-27T16:40:33.116Z,19.50
2018-05-27T16:43:06.129Z,19.50
2018-05-27T16:45:38.637Z,19.60
2018-05-27T16:48:11.373Z,19.60
2018-05-27T16:50:44.046Z,19.70
2018-05-27T16:53:16.644Z,19.70
2018-05-27T16:55:49.265Z,19.70
2018-05-27T16:58:21.716Z,19.70
2018-05-27T17:00:54.339Z,19.60
2018-05-27T17:03:27.004Z,19.60
2018-05-27T17:05:59.953Z,19.50
2018-05-27T17:08:32.809Z,19.40
2018-05-27T17:11:06.099Z,19.40
2018-05-27T17:13:38.548Z,19.40
2018-05-27T17:16:11.218Z,19.40
2018-05-27T17:18:43.928Z,19.40
2018-05-27T17:21:16.633Z,19.40
2018-05-27T17:23:49.770Z,19.40
2018-05-27T17:26:22.929Z,19.50
2018-05-27T17:28:56.293Z,19.50
2018-05-27T17:31:28.840Z,19.50
2018-05-27T17:34:01.264Z,19.30
2018-05-27T17:36:34.498Z,19.20
2018-05-27T17:39:07.199Z,19.20
2018-05-27T17:41:39.900Z,19.10
2018-05-27T17:44:12.813Z,19.10
2018-05-27T17:46:45.483Z,19.10
2018-05-27T17:49:18.199Z,19.10
2018-05-27T17:51:51.598Z,19.20
2018-05-27T17:54:24.268Z,19.10
2018-05-27T17:57:03.681Z,19.20
2018-05-27T17:59:37.215Z,19.20
2018-05-27T18:02:09.819Z,19.20
2018-05-27T18:04:42.655Z,19.30
2018-05-27T18:07:16.082Z,19.20
2018-05-27T18:09:48.930Z,19.20
2018-05-27T18:12:22.120Z,19.20
2018-05-27T18:14:54.615Z,19.10
2018-05-27T18:17:27.209Z,19.20
2018-05-27T18:19:59.746Z,19.20
2018-05-27T18:22:32.359Z,19.30
2018-05-27T18:25:04.855Z,19.40
2018-05-27T18:27:38.154Z,19.50
2018-05-27T18:30:10.859Z,19.50
2018-05-27T18:32:43.499Z,19.50
2018-05-27T18:35:16.731Z,19.50
2018-05-27T18:37:50.301Z,19.40
2018-05-27T18:40:22.851Z,19.40
2018-05-27T18:42:55.338Z,19.40
2018-05-27T18:45:28.144Z,19.30
2018-05-27T18:48:00.838Z,19.30
2018-05-27T18:50:33.499Z,19.30
2018-05-27T18:53:06.111Z,19.20
2018-05-27T18:55:38.923Z,19.20
2018-05-27T19:00:50.670Z,19.20
2018-05-27T19:03:23.351Z,19.10
2018-05-27T19:05:55.979Z,19.10
2018-05-27T19:08:28.670Z,19.10
2018-05-27T19:11:01.294Z,19.00
2018-05-27T19:13:33.934Z,19.00
2018-05-27T19:16:07.149Z,18.90
2018-05-27T19:18:40.405Z,18.80
2018-05-27T19:21:13.021Z,18.80
2018-05-27T19:23:45.836Z,18.80
2018-05-27T19:26:18.420Z,18.70
2018-05-27T19:28:51.858Z,18.70
2018-05-27T19:31:24.506Z,18.60
2018-05-27T19:33:57.190Z,18.70
2018-05-27T19:36:29.812Z,18.70
2018-05-27T19:39:02.366Z,18.70
2018-05-27T19:41:34.916Z,18.70
2018-05-27T19:44:07.709Z,18.80
2018-05-27T19:46:40.135Z,18.80
2018-05-27T19:49:12.704Z,18.80
2018-05-27T19:51:45.350Z,18.80
2018-05-27T19:54:18.604Z,18.80
2018-05-27T19:56:51.200Z,18.80
2018-05-27T19:59:24.565Z,18.70
2018-05-27T20:01:57.169Z,18.70
2018-05-27T20:04:29.880Z,18.70
2018-05-27T20:07:02.528Z,18.60
2018-05-27T20:09:35.259Z,18.60
2018-05-27T20:12:08.515Z,18.60
2018-05-27T20:14:41.162Z,18.60
2018-05-27T20:17:13.815Z,18.60
2018-05-27T20:19:47.011Z,18.60
2018-05-27T20:22:20.583Z,18.60
2018-05-27T20:24:53.988Z,18.60
2018-05-27T20:27:26.739Z,18.50
2018-05-27T20:29:59.370Z,18.50
2018-05-27T20:32:32.007Z,18.60
2018-05-27T20:35:04.619Z,18.50
2018-05-27T20:37:37.988Z,18.50
2018-05-27T20:40:11.191Z,18.40
2018-05-27T20:42:43.657Z,18.40
2018-05-27T20:45:16.064Z,18.30
2018-05-27T20:47:48.970Z,18.30
2018-05-27T20:50:21.836Z,18.30
2018-05-27T20:52:54.425Z,18.20
2018-05-27T20:55:26.885Z,18.20
2018-05-27T20:57:59.594Z,18.20
2018-05-27T21:00:32.176Z,18.20
2018-05-27T21:03:05.407Z,18.20
2018-05-27T21:05:37.922Z,18.20
2018-05-27T21:08:10.417Z,18.20
2018-05-27T21:10:43.005Z,18.30
2018-05-27T21:13:15.731Z,18.20
2018-05-27T21:15:48.194Z,18.20
2018-05-27T21:18:20.820Z,18.30
2018-05-27T21:20:54.028Z,18.40
2018-05-27T21:23:27.479Z,18.30
2018-05-27T21:26:00.843Z,18.30
2018-05-27T21:28:33.303Z,18.30
2018-05-27T21:31:06.063Z,18.30
2018-05-27T21:33:38.788Z,18.40
2018-05-27T21:36:11.477Z,18.40
2018-05-27T21:38:44.068Z,18.40
2018-05-27T21:41:16.610Z,18.40
2018-05-27T21:43:49.397Z,18.40
2018-05-27T21:46:22.008Z,18.40
2018-05-27T21:48:55.492Z,18.40
2018-05-27T21:51:28.029Z,18.40
2018-05-27T21:54:00.705Z,18.40
2018-05-27T21:56:33.367Z,18.40
2018-05-27T21:59:06.029Z,18.30
2018-05-27T22:01:38.994Z,18.30
2018-05-27T22:04:11.542Z,18.30
2018-05-27T22:06:44.213Z,18.30
2018-05-27T22:09:16.599Z,18.20
2018-05-27T22:11:49.311Z,18.20
2018-05-27T22:14:21.649Z,18.30
2018-05-27T22:16:53.958Z,18.30
2018-05-27T22:19:27.178Z,18.30
2018-05-27T22:21:59.832Z,18.30
2018-05-27T22:24:33.969Z,18.20
2018-05-27T22:27:06.539Z,18.20
2018-05-27T22:29:39.109Z,18.20
2018-05-27T22:32:12.439Z,18.10
2018-05-27T22:34:45.545Z,18.00
2018-05-27T22:37:17.959Z,18.00
2018-05-27T22:39:50.556Z,17.90
2018-05-27T22:42:23.105Z,17.80
2018-05-27T22:44:55.609Z,17.70
2018-05-27T22:47:29.244Z,17.70
2018-05-27T22:50:01.715Z,17.60
2018-05-27T22:52:35.013Z,17.70
2018-05-27T22:55:08.331Z,17.80
2018-05-27T22:57:40.788Z,17.70
2018-05-27T23:00:14.095Z,17.80
2018-05-27T23:02:46.622Z,17.80
2018-05-27T23:05:19.067Z,17.80
2018-05-27T23:07:52.323Z,17.80
2018-05-27T23:10:24.876Z,17.70
2018-05-27T23:12:57.219Z,17.80
2018-05-27T23:15:29.702Z,17.80
2018-05-27T23:18:02.491Z,17.70
2018-05-27T23:20:35.022Z,17.70
2018-05-27T23:23:07.526Z,17.60
2018-05-27T23:25:40.168Z,17.60
2018-05-27T23:28:12.645Z,17.60
2018-05-27T23:30:45.810Z,17.50
2018-05-27T23:33:19.043Z,17.50
2018-05-27T23:35:52.628Z,17.50
2018-05-27T23:38:25.096Z,17.50
2018-05-27T23:40:57.553Z,17.50
2018-05-27T23:43:30.220Z,17.50
2018-05-27T23:46:02.644Z,17.40
2018-05-27T23:48:35.922Z,17.40
2018-05-27T23:51:08.540Z,17.40
2018-05-27T23:53:40.998Z,17.40
2018-05-27T23:56:14.223Z,17.40
2018-05-27T23:58:46.578Z,17.40
